createdAt,value
2022-09-01T00:02:38.903Z,2.03
2022-09-01T00:05:41.474Z,1.95
2022-09-01T00:08:43.589Z,1.92
2022-09-01T00:11:50.587Z,2.10
2022-09-01T00:14:53.377Z,1.73
2022-09-01T00:17:55.817Z,1.55
2022-09-01T00:20:59.296Z,1.83
2022-09-01T00:24:02.399Z,1.87
2022-09-01T00:27:04.542Z,1.55
2022-09-01T00:30:07.995Z,2.17
2022-09-01T00:33:10.357Z,2.05
2022-09-01T00:36:12.767Z,1.80
2022-09-01T00:39:15.309Z,1.95
2022-09-01T00:42:17.793Z,1.80
2022-09-01T00:45:21.804Z,3.03
2022-09-01T00:48:28.130Z,2.47
2022-09-01T00:51:33.230Z,3.90
2022-09-01T00:54:40.064Z,2.20
2022-09-01T00:57:43.911Z,2.17
2022-09-01T01:00:49.686Z,1.83
2022-09-01T01:03:52.308Z,1.90
2022-09-01T01:07:02.224Z,2.00
2022-09-01T01:10:07.097Z,2.08
2022-09-01T01:13:14.068Z,2.17
2022-09-01T01:16:16.304Z,2.55
2022-09-01T01:19:47.297Z,2.00
2022-09-01T01:23:10.144Z,2.28
2022-09-01T01:26:12.903Z,2.25
2022-09-01T01:29:17.584Z,2.22
2022-09-01T01:32:20.967Z,2.30
2022-09-01T01:35:25.106Z,1.92
2022-09-01T01:38:30.179Z,2.87
2022-09-01T01:41:35.627Z,1.90
2022-09-01T01:44:39.731Z,1.80
2022-09-01T01:47:42.340Z,2.03
2022-09-01T01:50:46.032Z,1.70
2022-09-01T01:53:52.608Z,1.62
2022-09-01T01:56:55.618Z,1.80
2022-09-01T01:59:57.894Z,2.45
2022-09-01T02:03:00.702Z,2.10
2022-09-01T02:06:07.002Z,2.42
2022-09-01T02:09:09.594Z,1.73
2022-09-01T02:12:15.874Z,1.98
2022-09-01T02:15:19.870Z,2.03
2022-09-01T02:18:31.099Z,1.75
2022-09-01T02:21:33.878Z,2.10
2022-09-01T02:24:36.017Z,2.03
2022-09-01T02:27:39.477Z,1.70
2022-09-01T02:30:45.197Z,2.12
2022-09-01T02:33:48.637Z,1.73
2022-09-01T02:36:53.618Z,1.30
2022-09-01T02:39:57.611Z,1.62
2022-09-01T02:43:01.125Z,1.50
2022-09-01T02:46:04.068Z,1.52
2022-09-01T02:49:21.124Z,1.65
2022-09-01T02:52:23.756Z,1.62
2022-09-01T02:55:25.889Z,1.52
2022-09-01T02:58:30.182Z,2.35
2022-09-01T03:01:33.151Z,1.67
2022-09-01T03:04:36.577Z,1.70
2022-09-01T03:07:42.493Z,2.00
2022-09-01T03:10:46.705Z,1.27
2022-09-01T03:13:48.890Z,1.40
2022-09-01T03:16:51.666Z,1.67
2022-09-01T03:19:54.729Z,1.40
2022-09-01T03:22:59.179Z,1.12
2022-09-01T03:26:01.460Z,1.48
2022-09-01T03:29:04.679Z,1.15
2022-09-01T03:32:07.017Z,1.45
2022-09-01T03:35:10.122Z,1.52
2022-09-01T03:38:12.932Z,1.42
2022-09-01T03:41:18.825Z,1.40
2022-09-01T03:44:20.972Z,1.30
2022-09-01T03:47:24.175Z,1.15
2022-09-01T03:50:28.490Z,1.10
2022-09-01T03:53:38.117Z,1.30
2022-09-01T03:56:43.943Z,1.23
2022-09-01T03:59:47.579Z,1.48
2022-09-01T04:02:56.839Z,1.35
2022-09-01T04:06:02.341Z,1.60
2022-09-01T04:09:04.632Z,1.50
2022-09-01T04:12:08.971Z,1.27
2022-09-01T04:15:15.229Z,1.42
2022-09-01T04:18:21.488Z,1.73
2022-09-01T04:21:23.927Z,1.58
2022-09-01T04:24:29.067Z,1.67
2022-09-01T04:27:31.844Z,2.03
2022-09-01T04:30:36.939Z,1.98
2022-09-01T04:33:40.270Z,1.73
2022-09-01T04:36:44.676Z,1.62
2022-09-01T04:39:56.196Z,2.45
2022-09-01T04:42:59.648Z,1.50
2022-09-01T04:46:03.306Z,1.70
2022-09-01T04:49:13.153Z,1.70
2022-09-01T04:52:15.960Z,1.70
2022-09-01T04:55:18.584Z,2.12
2022-09-01T04:58:22.133Z,1.90
2022-09-01T05:01:26.516Z,1.92
2022-09-01T05:04:33.890Z,1.80
2022-09-01T05:07:37.982Z,1.75
2022-09-01T05:10:45.903Z,1.80
2022-09-01T05:13:49.941Z,1.98
2022-09-01T05:16:58.395Z,2.12
2022-09-01T05:20:01.042Z,1.70
2022-09-01T05:23:03.178Z,2.08
2022-09-01T05:26:19.350Z,2.05
2022-09-01T05:29:21.950Z,1.70
2022-09-01T05:32:26.007Z,1.67
2022-09-01T05:35:33.083Z,2.05
2022-09-01T05:38:36.674Z,2.30
2022-09-01T05:41:40.909Z,1.50
2022-09-01T05:44:45.269Z,1.85
2022-09-01T05:47:48.880Z,1.80
2022-09-01T05:50:56.201Z,1.73
2022-09-01T05:54:01.947Z,1.60
2022-09-01T05:57:30.463Z,1.73
2022-09-01T06:00:34.758Z,1.80
2022-09-01T06:03:38.355Z,1.85
2022-09-01T06:07:05.371Z,2.00
2022-09-01T06:10:09.452Z,1.62
2022-09-01T06:13:15.913Z,1.50
2022-09-01T06:16:19.629Z,2.00
2022-09-01T06:19:22.130Z,1.75
2022-09-01T06:22:27.943Z,1.95
2022-09-01T06:25:30.596Z,1.70
2022-09-01T06:28:33.686Z,1.67
2022-09-01T06:31:39.350Z,2.00
2022-09-01T06:34:44.560Z,1.33
2022-09-01T06:37:48.579Z,2.03
2022-09-01T06:41:01.029Z,2.40
2022-09-01T06:44:03.420Z,1.87
2022-09-01T06:47:07.208Z,1.80
2022-09-01T06:51:15.012Z,1.20
2022-09-01T06:53:38.941Z,1.60
2022-09-01T06:56:44.922Z,1.48
2022-09-01T06:59:54.543Z,1.70
2022-09-01T07:02:58.235Z,1.40
2022-09-01T07:06:06.834Z,1.27
2022-09-01T07:09:20.363Z,1.42
2022-09-01T07:12:26.562Z,1.55
2022-09-01T07:18:59.162Z,1.42
2022-09-01T07:22:09.516Z,1.50
2022-09-01T07:25:13.025Z,1.40
2022-09-01T07:28:18.991Z,1.50
2022-09-01T07:34:50.083Z,1.52
2022-09-01T07:44:40.105Z,1.52
2022-09-01T07:47:53.583Z,1.60
2022-09-01T07:54:19.325Z,1.55
2022-09-01T07:57:22.973Z,1.60
2022-09-01T08:00:25.828Z,1.73
2022-09-01T08:03:34.541Z,1.30
2022-09-01T08:06:38.754Z,1.25
2022-09-01T08:09:44.161Z,1.15
2022-09-01T08:12:56.365Z,1.20
2022-09-01T08:16:07.395Z,1.40
2022-09-01T08:19:16.528Z,1.33
2022-09-01T08:22:24.053Z,1.33
2022-09-01T08:25:26.780Z,1.33
2022-09-01T08:28:29.927Z,1.42
2022-09-01T08:31:32.706Z,1.30
2022-09-01T08:34:37.391Z,1.50
2022-09-01T08:37:40.063Z,1.60
2022-09-01T08:40:51.376Z,1.60
2022-09-01T08:44:10.193Z,1.42
2022-09-01T08:47:16.438Z,1.80
2022-09-01T08:50:20.645Z,1.50
2022-09-01T08:53:45.955Z,1.27
2022-09-01T08:56:54.508Z,1.17
2022-09-01T09:00:00.583Z,0.98
2022-09-01T09:03:19.503Z,0.98
2022-09-01T09:09:53.072Z,1.10
2022-09-01T09:13:05.681Z,0.93
2022-09-01T09:16:18.993Z,1.30
2022-09-01T09:19:28.139Z,1.27
2022-09-01T09:22:31.730Z,1.33
2022-09-01T09:25:34.379Z,1.10
2022-09-01T09:28:38.534Z,1.27
2022-09-01T09:31:49.857Z,1.20
2022-09-01T09:34:52.722Z,1.17
2022-09-01T09:37:56.219Z,0.85
2022-09-01T09:41:18.938Z,1.25
2022-09-01T09:44:29.902Z,1.27
2022-09-01T09:47:45.499Z,1.10
2022-09-01T09:50:48.116Z,1.05
2022-09-01T09:53:52.330Z,0.95
2022-09-01T09:57:11.591Z,1.37
2022-09-01T10:00:25.979Z,1.15
2022-09-01T10:03:42.394Z,1.33
2022-09-01T10:06:46.848Z,1.40
2022-09-01T10:09:53.000Z,1.30
2022-09-01T10:12:56.091Z,1.25
2022-09-01T10:16:03.781Z,1.35
2022-09-01T10:19:13.053Z,1.25
2022-09-01T10:22:20.614Z,1.02
2022-09-01T10:25:29.164Z,1.40
2022-09-01T10:28:33.746Z,1.25
2022-09-01T10:31:37.222Z,1.15
2022-09-01T10:34:42.232Z,1.52
2022-09-01T10:37:46.298Z,1.20
2022-09-01T10:41:07.762Z,0.90
2022-09-01T10:44:19.310Z,0.90
2022-09-01T10:47:30.470Z,0.90
2022-09-01T10:50:36.028Z,1.00
2022-09-01T10:53:46.995Z,0.80
2022-09-01T10:56:53.366Z,1.20
2022-09-01T11:00:36.746Z,1.17
2022-09-01T11:03:51.816Z,0.65
2022-09-01T11:07:13.936Z,0.73
2022-09-01T11:10:35.314Z,0.90
2022-09-01T11:13:50.275Z,0.70
2022-09-01T11:17:31.840Z,0.65
2022-09-01T11:20:40.327Z,0.80
2022-09-01T11:23:42.530Z,0.88
2022-09-01T11:26:48.345Z,0.80
2022-09-01T11:30:00.490Z,1.00
2022-09-01T11:33:17.713Z,0.90
2022-09-01T11:36:47.320Z,1.10
2022-09-01T11:40:02.196Z,0.70
2022-09-01T11:43:15.704Z,0.70
2022-09-01T11:46:26.893Z,0.88
2022-09-01T11:49:38.968Z,1.00
2022-09-01T11:52:41.725Z,1.00
2022-09-01T11:55:52.943Z,0.80
2022-09-01T11:58:55.560Z,1.17
2022-09-01T12:01:59.106Z,1.00
2022-09-01T12:05:04.354Z,0.80
2022-09-01T12:08:14.651Z,0.80
2022-09-01T12:11:25.613Z,0.73
2022-09-01T12:14:38.920Z,1.00
2022-09-01T12:17:53.919Z,0.85
2022-09-01T12:20:59.092Z,0.90
2022-09-01T12:24:21.544Z,0.95
2022-09-01T12:27:25.144Z,0.70
2022-09-01T12:30:27.918Z,0.90
2022-09-01T12:33:31.280Z,0.70
2022-09-01T12:36:36.157Z,0.80
2022-09-01T12:39:44.919Z,0.90
2022-09-01T12:42:52.976Z,0.60
2022-09-01T12:45:55.247Z,0.70
2022-09-01T12:49:16.549Z,0.60
2022-09-01T12:52:27.708Z,0.70
2022-09-01T12:55:51.792Z,0.80
2022-09-01T12:59:36.182Z,0.98
2022-09-01T13:02:44.060Z,0.98
2022-09-01T13:05:51.735Z,1.00
2022-09-01T13:12:10.820Z,0.60
2022-09-01T13:18:19.318Z,0.88
2022-09-01T13:21:21.950Z,0.90
2022-09-01T13:24:28.060Z,0.70
2022-09-01T13:27:32.790Z,0.80
2022-09-01T13:30:35.899Z,1.00
2022-09-01T13:37:00.540Z,0.75
2022-09-01T13:40:10.299Z,0.60
2022-09-01T13:43:17.029Z,1.00
2022-09-01T13:46:19.529Z,0.95
2022-09-01T13:52:55.121Z,0.90
2022-09-01T13:59:06.411Z,0.62
2022-09-01T14:02:08.673Z,0.60
2022-09-01T14:05:11.247Z,0.60
2022-09-01T14:08:15.588Z,0.60
2022-09-01T14:11:20.085Z,0.60
2022-09-01T14:14:23.197Z,0.57
2022-09-01T14:17:26.581Z,0.80
2022-09-01T14:20:33.371Z,0.93
2022-09-01T14:23:39.753Z,1.00
2022-09-01T14:26:42.276Z,0.60
2022-09-01T14:29:50.376Z,0.88
2022-09-01T14:32:59.350Z,1.00
2022-09-01T14:36:03.220Z,0.75
2022-09-01T14:39:05.826Z,0.75
2022-09-01T14:42:11.667Z,1.00
2022-09-01T14:45:15.619Z,0.70
2022-09-01T14:48:21.011Z,0.60
2022-09-01T14:52:10.402Z,0.80
2022-09-01T14:54:51.329Z,0.70
2022-09-01T14:57:54.990Z,0.88
2022-09-01T15:01:12.022Z,0.60
2022-09-01T15:04:21.182Z,0.65
2022-09-01T15:07:24.451Z,0.60
2022-09-01T15:10:27.162Z,0.98
2022-09-01T15:13:29.574Z,0.80
2022-09-01T15:16:35.714Z,0.77
2022-09-01T15:19:38.127Z,0.60
2022-09-01T15:22:41.691Z,0.88
2022-09-01T15:25:44.485Z,0.65
2022-09-01T15:28:48.086Z,0.80
2022-09-01T15:31:50.547Z,0.50
2022-09-01T15:34:52.708Z,0.60
2022-09-01T15:37:56.025Z,0.80
2022-09-01T15:40:58.813Z,0.50
2022-09-01T15:44:06.036Z,0.65
2022-09-01T15:47:08.316Z,0.75
2022-09-01T15:50:21.117Z,0.88
2022-09-01T15:53:24.165Z,0.70
2022-09-01T15:56:27.428Z,0.82
2022-09-01T15:59:29.732Z,0.80
2022-09-01T16:02:32.260Z,0.93
2022-09-01T16:05:39.211Z,0.68
2022-09-01T16:08:41.778Z,0.75
2022-09-01T16:11:44.895Z,0.70
2022-09-01T16:14:47.036Z,0.70
2022-09-01T16:17:55.671Z,0.60
2022-09-01T16:21:38.183Z,0.88
2022-09-01T16:24:45.547Z,0.60
2022-09-01T16:27:47.663Z,0.90
2022-09-01T16:30:52.408Z,0.82
2022-09-01T16:33:56.724Z,0.70
2022-09-01T16:37:05.740Z,1.83
2022-09-01T16:40:32.232Z,0.82
2022-09-01T16:43:58.262Z,0.68
2022-09-01T16:47:22.324Z,0.70
2022-09-01T16:50:45.015Z,0.73
2022-09-01T16:53:50.055Z,0.50
2022-09-01T16:57:14.450Z,0.85
2022-09-01T17:00:29.553Z,0.60
2022-09-01T17:03:42.852Z,0.85
2022-09-01T17:07:06.622Z,0.90
2022-09-01T17:10:41.051Z,0.82
2022-09-01T17:13:47.411Z,1.00
2022-09-01T17:16:54.559Z,0.70
2022-09-01T17:19:57.075Z,0.90
2022-09-01T17:23:08.562Z,0.95
2022-09-01T17:26:23.470Z,1.20
2022-09-01T17:29:32.699Z,1.08
2022-09-01T17:32:51.661Z,1.00
2022-09-01T17:36:24.006Z,1.73
2022-09-01T17:39:52.980Z,1.00
2022-09-01T17:46:42.105Z,0.88
2022-09-01T17:50:03.079Z,1.30
2022-09-01T17:53:20.423Z,1.20
2022-09-01T17:56:35.983Z,1.10
2022-09-01T17:59:58.511Z,1.00
2022-09-01T18:03:18.929Z,0.85
2022-09-01T18:06:32.691Z,1.00
2022-09-01T18:09:43.170Z,1.20
2022-09-01T18:12:52.740Z,1.02
2022-09-01T18:15:59.980Z,1.10
2022-09-01T18:19:08.869Z,1.30
2022-09-01T18:22:18.641Z,1.00
2022-09-01T18:25:23.626Z,1.50
2022-09-01T18:28:25.782Z,1.20
2022-09-01T18:31:47.363Z,1.25
2022-09-01T18:35:08.361Z,1.27
2022-09-01T18:38:37.585Z,1.10
2022-09-01T18:41:58.588Z,1.25
2022-09-01T18:45:07.832Z,1.70
2022-09-01T18:48:33.243Z,2.05
2022-09-01T18:51:56.689Z,2.37
2022-09-01T18:55:13.837Z,2.17
2022-09-01T18:58:47.571Z,2.12
2022-09-01T19:01:55.967Z,1.98
2022-09-01T19:05:03.167Z,1.98
2022-09-01T19:08:25.543Z,1.92
2022-09-01T19:11:34.358Z,1.83
2022-09-01T19:14:59.173Z,2.00
2022-09-01T19:18:13.224Z,1.98
2022-09-01T19:21:23.455Z,1.45
2022-09-01T19:24:45.881Z,1.60
2022-09-01T19:28:09.407Z,1.73
2022-09-01T19:31:39.249Z,1.40
2022-09-01T19:37:50.578Z,2.22
2022-09-01T19:40:58.835Z,1.85
2022-09-01T19:44:30.547Z,1.85
2022-09-01T19:47:38.737Z,1.80
2022-09-01T19:53:58.523Z,2.00
2022-09-01T19:57:11.470Z,2.22
2022-09-01T20:00:41.906Z,1.62
2022-09-01T20:03:53.764Z,1.80
2022-09-01T20:07:00.166Z,1.67
2022-09-01T20:10:49.687Z,1.62
2022-09-01T20:13:58.775Z,1.70
2022-09-01T20:17:05.077Z,1.50
2022-09-01T20:20:14.817Z,2.00
2022-09-01T20:23:30.700Z,1.83
2022-09-01T20:26:50.316Z,1.80
2022-09-01T20:30:06.591Z,1.77
2022-09-01T20:33:20.967Z,1.58
2022-09-01T20:36:39.954Z,1.80
2022-09-01T20:40:00.179Z,1.92
2022-09-01T20:43:11.135Z,1.60
2022-09-01T20:46:19.215Z,1.60
2022-09-01T20:52:32.237Z,1.77
2022-09-01T20:55:53.029Z,1.70
2022-09-01T20:59:01.351Z,1.60
2022-09-01T21:02:26.365Z,1.42
2022-09-01T21:06:12.094Z,1.30
2022-09-01T21:09:45.215Z,1.23
2022-09-01T21:13:33.316Z,1.50
2022-09-01T21:17:02.001Z,1.12
2022-09-01T21:20:30.316Z,1.12
2022-09-01T21:23:32.991Z,0.77
2022-09-01T21:26:37.909Z,1.20
2022-09-01T21:30:04.694Z,1.55
2022-09-01T21:33:06.846Z,0.95
2022-09-01T21:36:09.414Z,1.10
2022-09-01T21:39:12.970Z,0.90
2022-09-01T21:42:15.526Z,1.10
2022-09-01T21:45:19.058Z,1.02
2022-09-01T21:48:21.508Z,0.88
2022-09-01T21:51:23.979Z,0.90
2022-09-01T21:54:26.502Z,0.90
2022-09-01T21:57:28.632Z,1.00
2022-09-01T22:00:33.821Z,0.80
2022-09-01T22:03:36.442Z,0.93
2022-09-01T22:06:40.336Z,0.70
2022-09-01T22:09:43.471Z,0.80
2022-09-01T22:12:47.953Z,0.80
2022-09-01T22:15:54.236Z,0.80
2022-09-01T22:18:56.354Z,0.90
2022-09-01T22:21:59.441Z,0.60
2022-09-01T22:25:11.936Z,0.65
2022-09-01T22:28:14.608Z,0.80
2022-09-01T22:31:19.934Z,0.75
2022-09-01T22:34:22.413Z,0.88
2022-09-01T22:37:24.543Z,0.68
2022-09-01T22:40:26.997Z,0.62
2022-09-01T22:43:30.350Z,0.57
2022-09-01T22:46:35.521Z,0.70
2022-09-01T22:49:37.736Z,0.88
2022-09-01T22:52:40.462Z,0.85
2022-09-01T22:55:45.963Z,0.57
2022-09-01T22:58:49.881Z,0.85
2022-09-01T23:01:53.007Z,0.82
2022-09-01T23:04:55.567Z,0.68
2022-09-01T23:07:58.957Z,0.80
2022-09-01T23:11:02.824Z,0.75
2022-09-01T23:14:05.744Z,0.98
2022-09-01T23:17:08.514Z,0.65
2022-09-01T23:20:13.154Z,0.80
2022-09-01T23:23:15.922Z,0.80
2022-09-01T23:26:18.145Z,0.60
2022-09-01T23:29:20.826Z,0.80
2022-09-01T23:32:23.102Z,0.70
2022-09-01T23:35:25.469Z,0.80
2022-09-01T23:38:27.618Z,0.55
2022-09-01T23:41:32.902Z,0.82
2022-09-01T23:44:36.854Z,0.80
2022-09-01T23:47:39.338Z,0.80
2022-09-01T23:50:50.461Z,1.10
2022-09-01T23:53:53.065Z,0.80
2022-09-01T23:56:55.333Z,0.60
2022-09-01T23:59:58.259Z,0.80
